createdAt,value
2022-09-14T21:09:39.933Z,16.50
2022-09-14T21:11:15.960Z,16.40
2022-09-14T21:12:48.965Z,16.30
2022-09-14T21:14:22.431Z,16.30
2022-09-14T21:15:55.545Z,16.30
2022-09-14T21:17:28.612Z,16.30
2022-09-14T21:20:37.472Z,16.20
2022-09-14T21:22:11.863Z,16.30
2022-09-14T21:23:45.196Z,16.30
2022-09-14T21:25:18.336Z,16.30
2022-09-14T21:26:51.460Z,16.30
2022-09-14T21:28:24.665Z,16.30
2022-09-14T21:29:57.718Z,16.30
2022-09-14T21:31:30.992Z,16.30
2022-09-14T21:33:04.092Z,16.30
2022-09-14T21:34:37.112Z,16.30
2022-09-14T21:36:11.514Z,16.00
2022-09-14T21:37:48.392Z,16.20
2022-09-14T21:39:23.977Z,16.20
2022-09-14T21:40:56.091Z,16.10
2022-09-14T21:42:30.370Z,16.00
2022-09-14T21:44:04.056Z,15.90
2022-09-14T21:45:37.098Z,15.90
2022-09-14T21:47:09.119Z,15.90
2022-09-14T21:48:42.152Z,15.90
2022-09-14T21:50:15.189Z,15.90
2022-09-14T21:51:48.928Z,15.90
2022-09-14T21:53:22.316Z,15.80
2022-09-14T21:54:55.353Z,15.80
2022-09-14T21:56:30.495Z,15.70
2022-09-14T21:58:03.522Z,15.70
2022-09-14T21:59:37.193Z,15.70
2022-09-14T22:01:09.525Z,15.60
2022-09-14T22:02:43.010Z,15.60
2022-09-14T22:04:17.739Z,15.50
2022-09-14T22:05:56.671Z,15.50
2022-09-14T22:07:30.136Z,15.40
2022-09-14T22:09:04.814Z,15.30
2022-09-14T22:10:38.404Z,15.40
2022-09-14T22:12:11.700Z,15.30
2022-09-14T22:13:45.620Z,15.20
2022-09-14T22:15:18.676Z,15.30
2022-09-14T22:16:52.103Z,15.20
2022-09-14T22:18:25.148Z,15.20
2022-09-14T22:20:00.635Z,15.20
2022-09-14T22:21:35.655Z,15.20
2022-09-14T22:23:08.925Z,15.20
2022-09-14T22:24:43.318Z,15.10
2022-09-14T22:26:15.363Z,15.20
2022-09-14T22:27:48.393Z,15.10
2022-09-14T22:29:21.756Z,15.10
2022-09-14T22:30:55.956Z,15.10
2022-09-14T22:32:29.059Z,15.10
2022-09-14T22:34:02.125Z,15.10
2022-09-14T22:35:34.198Z,15.10
2022-09-14T22:37:07.453Z,15.10
2022-09-14T22:38:40.963Z,15.10
2022-09-14T22:40:15.526Z,15.10
2022-09-14T22:41:49.007Z,15.00
2022-09-14T22:43:22.448Z,15.00
2022-09-14T22:44:55.479Z,15.00
2022-09-14T22:46:28.658Z,14.90
2022-09-14T22:48:02.032Z,15.00
2022-09-14T22:49:35.086Z,15.00
2022-09-14T22:51:10.693Z,15.00
2022-09-14T22:52:43.880Z,15.00
2022-09-14T22:54:16.985Z,14.90
2022-09-14T22:55:52.016Z,15.00
2022-09-14T22:57:25.092Z,15.00
2022-09-14T22:58:59.032Z,15.00
2022-09-14T23:00:33.241Z,15.00
2022-09-14T23:02:06.308Z,15.00
2022-09-14T23:03:38.603Z,14.90
2022-09-14T23:05:11.623Z,14.90
2022-09-14T23:06:47.274Z,14.90
2022-09-14T23:08:19.709Z,14.90
2022-09-14T23:09:52.730Z,14.90
2022-09-14T23:11:27.512Z,14.90
2022-09-14T23:12:59.600Z,14.80
2022-09-14T23:14:35.053Z,14.80
2022-09-14T23:16:12.435Z,14.80
2022-09-14T23:17:46.709Z,14.90
2022-09-14T23:19:23.779Z,14.80
2022-09-14T23:20:55.833Z,14.80
2022-09-14T23:22:29.009Z,14.80
2022-09-14T23:24:02.904Z,14.80
2022-09-14T23:25:36.397Z,14.80
2022-09-14T23:27:10.821Z,14.80
2022-09-14T23:28:42.862Z,14.80
2022-09-14T23:30:16.040Z,14.80
2022-09-14T23:31:49.093Z,14.70
2022-09-14T23:33:21.214Z,14.80
2022-09-14T23:34:54.238Z,14.80
2022-09-14T23:36:28.309Z,14.80
2022-09-14T23:38:01.337Z,14.80
2022-09-14T23:39:34.392Z,14.80
2022-09-14T23:41:06.412Z,14.80
2022-09-14T23:42:40.882Z,14.80
2022-09-14T23:44:14.256Z,14.80
2022-09-14T23:45:48.828Z,14.80
2022-09-14T23:47:21.934Z,14.70
2022-09-14T23:48:54.977Z,14.70
2022-09-14T23:50:28.653Z,14.70
2022-09-14T23:52:01.684Z,14.70
2022-09-14T23:53:35.516Z,14.70
2022-09-14T23:55:09.619Z,14.70
2022-09-14T23:56:42.764Z,14.70
2022-09-14T23:58:16.148Z,14.70
2022-09-14T23:59:49.185Z,14.70
